Time;durP1;ratioP1;P1;durP2;ratioP2;P2;SDS_P1;SDS_P2;PMS_P1;PMS_P2;Temp;Humidity;BMP_temperature;BMP_pressure;BME280_temperature;BME280_humidity;BME280_pressure;Samples;Min_cycle;Max_cycle;Signal;HPM_P1;HPM_P2
2022/12/25 00:00:04;;;;;;;8.53;2.87;;;8.50;99.90;;;;;;466778;254;28253;-74
2022/12/25 00:02:04;;;;;;;11.97;3.80;;;8.50;99.90;;;;;;466091;255;28381;-74
2022/12/25 00:04:06;;;;;;;5.90;3.23;;;8.50;99.90;;;;;;466521;254;28403;-74
2022/12/25 00:06:07;;;;;;;6.60;2.73;;;8.50;99.90;;;;;;466755;254;27951;-73
2022/12/25 00:08:08;;;;;;;10.23;2.70;;;8.50;99.90;;;;;;466724;254;27731;-74
2022/12/25 00:10:10;;;;;;;7.87;2.80;;;8.50;99.90;;;;;;466698;254;27615;-74
2022/12/25 00:12:11;;;;;;;7.90;2.77;;;8.50;99.90;;;;;;466736;255;27932;-75
2022/12/25 00:14:12;;;;;;;5.27;3.07;;;8.50;99.90;;;;;;466696;254;28034;-74
2022/12/25 00:16:13;;;;;;;8.83;2.97;;;8.50;99.90;;;;;;466780;254;27852;-73
2022/12/25 00:18:14;;;;;;;7.77;3.20;;;8.50;99.90;;;;;;466730;254;27835;-73
2022/12/25 00:20:16;;;;;;;7.23;2.73;;;8.50;99.90;;;;;;466768;255;27940;-74
2022/12/25 00:22:17;;;;;;;9.70;3.43;;;8.50;99.90;;;;;;466710;252;27973;-74
2022/12/25 00:24:18;;;;;;;8.77;3.13;;;8.50;99.90;;;;;;466717;255;27893;-74
2022/12/25 00:26:19;;;;;;;8.90;3.30;;;8.50;99.90;;;;;;466735;254;28053;-74
2022/12/25 00:28:21;;;;;;;12.80;3.60;;;8.50;99.90;;;;;;466806;254;28087;-74
2022/12/25 00:30:22;;;;;;;8.20;3.93;;;8.50;99.90;;;;;;466779;254;27951;-73
2022/12/25 00:32:23;;;;;;;5.03;3.10;;;8.50;99.90;;;;;;466816;254;28445;-74
2022/12/25 00:34:24;;;;;;;9.13;3.20;;;8.50;99.90;;;;;;466782;254;28339;-74
2022/12/25 00:36:26;;;;;;;9.17;3.20;;;8.50;99.90;;;;;;466739;255;28324;-74
2022/12/25 00:38:27;;;;;;;7.73;3.20;;;8.50;99.90;;;;;;466730;254;28394;-74
2022/12/25 00:40:28;;;;;;;8.17;2.57;;;8.40;99.90;;;;;;466735;254;28452;-74
2022/12/25 00:42:29;;;;;;;7.97;2.93;;;8.40;99.90;;;;;;466632;254;27925;-74
2022/12/25 00:44:31;;;;;;;6.93;3.07;;;8.30;99.90;;;;;;466778;254;27944;-72
2022/12/25 00:46:32;;;;;;;11.60;2.63;;;8.40;99.90;;;;;;466731;254;27901;-73
2022/12/25 00:48:33;;;;;;;9.93;2.90;;;8.40;99.90;;;;;;466818;254;27969;-74
2022/12/25 00:50:34;;;;;;;8.07;3.43;;;8.40;99.90;;;;;;466758;254;27934;-74
2022/12/25 00:52:36;;;;;;;8.60;2.60;;;8.30;99.90;;;;;;466829;254;28008;-74
2022/12/25 00:54:37;;;;;;;6.57;2.70;;;8.40;99.90;;;;;;466796;254;28042;-74
2022/12/25 00:56:38;;;;;;;8.40;2.70;;;8.40;99.90;;;;;;466775;255;28048;-73
2022/12/25 00:58:39;;;;;;;7.53;2.63;;;8.40;99.90;;;;;;466747;255;28092;-74
2022/12/25 01:00:41;;;;;;;7.57;3.10;;;8.40;99.90;;;;;;466741;254;27942;-74
2022/12/25 01:02:42;;;;;;;8.40;2.97;;;8.40;99.90;;;;;;466614;255;27963;-74
2022/12/25 01:04:43;;;;;;;6.53;3.00;;;8.40;99.90;;;;;;466754;255;27625;-74
2022/12/25 01:06:44;;;;;;;8.73;3.23;;;8.50;99.90;;;;;;466471;255;27836;-74
2022/12/25 01:11:06;;;;;;;9.93;3.43;;;8.50;99.90;;;;;;466729;255;27927;-74
2022/12/25 01:13:07;;;;;;;8.93;3.70;;;8.40;99.90;;;;;;466717;254;28094;-74
2022/12/25 01:15:08;;;;;;;7.73;3.67;;;8.40;99.90;;;;;;466752;255;28546;-74
2022/12/25 01:17:09;;;;;;;7.33;3.20;;;8.50;99.90;;;;;;466722;254;27902;-74
2022/12/25 01:19:11;;;;;;;11.93;3.53;;;8.50;99.90;;;;;;466763;254;28479;-74
2022/12/25 01:21:12;;;;;;;7.60;3.27;;;8.50;99.90;;;;;;466707;255;28376;-74
2022/12/25 01:23:13;;;;;;;8.73;3.90;;;8.50;99.90;;;;;;466775;254;28537;-74
2022/12/25 01:25:14;;;;;;;8.50;2.77;;;8.50;99.90;;;;;;466794;255;27948;-74
2022/12/25 01:27:16;;;;;;;9.80;3.73;;;8.50;99.90;;;;;;466777;254;27531;-74
2022/12/25 01:29:17;;;;;;;8.03;3.87;;;8.50;99.90;;;;;;466774;254;28073;-74
2022/12/25 01:31:18;;;;;;;12.50;3.80;;;8.50;99.90;;;;;;466824;254;27770;-75
2022/12/25 01:33:19;;;;;;;11.10;3.90;;;8.50;99.90;;;;;;466763;254;27946;-74
2022/12/25 01:35:21;;;;;;;8.20;3.90;;;8.50;99.90;;;;;;466731;254;27972;-74
2022/12/25 01:37:22;;;;;;;6.03;3.17;;;8.40;99.90;;;;;;466715;255;27798;-73
2022/12/25 01:39:23;;;;;;;8.63;3.70;;;8.50;99.90;;;;;;466751;254;28065;-74
2022/12/25 01:41:24;;;;;;;7.00;3.60;;;8.50;99.90;;;;;;466739;254;27818;-74
2022/12/25 01:43:26;;;;;;;10.73;4.43;;;8.50;99.90;;;;;;466700;254;28181;-74
2022/12/25 01:45:27;;;;;;;14.50;4.40;;;8.50;99.90;;;;;;466758;254;27913;-74
2022/12/25 01:47:28;;;;;;;4.43;3.40;;;8.50;99.90;;;;;;466725;254;27467;-74
2022/12/25 01:49:29;;;;;;;5.43;2.90;;;8.50;99.90;;;;;;466781;254;28577;-74
2022/12/25 01:51:31;;;;;;;11.30;3.60;;;8.50;99.90;;;;;;466785;254;28467;-75
2022/12/25 01:53:32;;;;;;;9.30;3.57;;;8.40;99.90;;;;;;466749;254;28184;-75
2022/12/25 01:55:33;;;;;;;7.10;3.67;;;8.40;99.90;;;;;;466752;254;28470;-74
2022/12/25 01:57:34;;;;;;;8.40;3.00;;;8.50;99.90;;;;;;466461;255;27973;-74
2022/12/25 01:59:36;;;;;;;7.50;3.43;;;8.50;99.90;;;;;;466804;255;27711;-74
2022/12/25 02:01:37;;;;;;;10.93;3.90;;;8.50;99.90;;;;;;466775;254;27929;-74
2022/12/25 02:03:41;;;;;;;6.30;3.43;;;8.40;99.90;;;;;;466336;255;27968;-75
2022/12/25 02:05:39;;;;;;;10.60;4.60;;;8.40;99.90;;;;;;466571;255;28080;-74
2022/12/25 02:07:41;;;;;;;6.60;3.67;;;8.50;99.90;;;;;;466778;254;27969;-73
2022/12/25 02:09:42;;;;;;;13.00;3.77;;;8.50;99.90;;;;;;466662;254;28031;-74
2022/12/25 02:11:55;;;;;;;6.83;3.73;;;8.50;99.90;;;;;;466729;254;27899;-74
2022/12/25 02:13:57;;;;;;;10.50;3.47;;;8.50;99.90;;;;;;466694;254;27648;-74
2022/12/25 02:15:58;;;;;;;6.87;3.57;;;8.50;99.90;;;;;;466706;254;27975;-74
2022/12/25 02:17:59;;;;;;;7.23;3.47;;;8.50;99.90;;;;;;466805;255;27908;-74
2022/12/25 02:20:00;;;;;;;8.57;3.30;;;8.60;99.90;;;;;;466739;255;28426;-74
2022/12/25 02:22:02;;;;;;;7.50;3.17;;;8.50;99.90;;;;;;466796;254;28277;-74
2022/12/25 02:24:03;;;;;;;7.57;3.63;;;8.60;99.90;;;;;;466629;255;28317;-73
2022/12/25 02:26:04;;;;;;;8.37;4.00;;;8.60;99.90;;;;;;466740;254;28529;-75
2022/12/25 02:28:05;;;;;;;13.33;4.30;;;8.50;99.90;;;;;;466732;254;28360;-73
2022/12/25 02:30:07;;;;;;;5.90;3.10;;;8.50;99.90;;;;;;466703;255;28025;-74
2022/12/25 02:32:08;;;;;;;6.77;3.87;;;8.40;99.90;;;;;;466824;254;27909;-75
2022/12/25 02:34:09;;;;;;;5.90;3.40;;;8.40;99.90;;;;;;466513;255;27868;-73
2022/12/25 02:36:10;;;;;;;6.00;3.27;;;8.30;99.90;;;;;;466772;254;27962;-74
2022/12/25 02:38:12;;;;;;;13.40;4.30;;;8.30;99.90;;;;;;466757;254;27436;-74
2022/12/25 02:40:13;;;;;;;5.60;3.50;;;8.20;99.90;;;;;;466729;254;27965;-74
2022/12/25 02:42:14;;;;;;;6.83;3.03;;;8.20;99.90;;;;;;466804;254;27932;-74
2022/12/25 03:07:31;;;;;;;10.53;3.17;;;7.90;99.90;;;;;;466728;255;27848;-75
2022/12/25 03:11:51;;;;;;;9.43;3.43;;;7.80;99.90;;;;;;466758;252;27505;-74
2022/12/25 03:13:53;;;;;;;4.83;2.70;;;7.80;99.90;;;;;;466782;254;27546;-74
2022/12/25 03:18:14;;;;;;;12.57;3.70;;;7.90;99.90;;;;;;466711;252;28269;-75
2022/12/25 03:27:14;;;;;;;6.97;2.93;;;7.90;99.90;;;;;;466712;255;28089;-74
2022/12/25 03:31:10;;;;;;;7.17;3.60;;;7.90;99.90;;;;;;466735;254;28052;-74
2022/12/25 03:31:16;;;;;;;7.50;2.80;;;8.00;99.90;;;;;;466449;254;28101;-74
2022/12/25 03:33:17;;;;;;;7.77;2.93;;;8.00;99.90;;;;;;466723;254;27637;-75
2022/12/25 03:35:22;;;;;;;4.33;2.80;;;8.00;99.90;;;;;;466718;255;27855;-74
2022/12/25 04:37:35;;;;;;;9.07;3.70;;;8.60;99.90;;;;;;466746;253;28133;-74
2022/12/25 04:39:36;;;;;;;3.50;2.87;;;8.50;99.90;;;;;;466684;254;27926;-74
2022/12/25 04:41:38;;;;;;;3.07;2.73;;;8.50;99.90;;;;;;466742;252;27913;-73
2022/12/25 04:43:39;;;;;;;5.50;3.47;;;8.50;99.90;;;;;;466761;254;27934;-74
2022/12/25 04:45:40;;;;;;;3.40;3.10;;;8.60;99.90;;;;;;466700;255;27611;-74
2022/12/25 04:47:41;;;;;;;4.80;3.10;;;8.60;99.90;;;;;;466752;254;28095;-74
2022/12/25 04:49:43;;;;;;;3.17;2.87;;;8.60;99.90;;;;;;466733;254;28182;-74
2022/12/25 04:51:44;;;;;;;4.10;2.37;;;8.60;99.90;;;;;;466769;254;27830;-73
2022/12/25 04:53:45;;;;;;;4.53;2.63;;;8.60;99.90;;;;;;466789;254;28060;-74
2022/12/25 04:55:46;;;;;;;2.93;2.60;;;8.50;99.90;;;;;;466758;254;28157;-73
2022/12/25 04:57:48;;;;;;;4.57;2.80;;;8.60;99.90;;;;;;466804;254;27973;-73
2022/12/25 04:59:49;;;;;;;3.60;3.00;;;8.50;99.90;;;;;;466810;254;27900;-74
2022/12/25 05:01:50;;;;;;;4.93;3.20;;;8.40;99.90;;;;;;466709;254;28170;-74
2022/12/25 05:03:51;;;;;;;6.00;2.87;;;8.40;99.90;;;;;;466769;254;27974;-74
2022/12/25 05:05:53;;;;;;;2.60;2.40;;;8.40;99.90;;;;;;466728;254;28078;-74
2022/12/25 05:07:54;;;;;;;9.20;3.90;;;8.40;99.90;;;;;;466755;254;28028;-73
2022/12/25 05:09:55;;;;;;;3.43;3.00;;;8.40;99.90;;;;;;466739;255;28566;-74
2022/12/25 05:11:56;;;;;;;5.07;3.20;;;8.50;99.90;;;;;;466697;254;29138;-74
2022/12/25 05:13:58;;;;;;;4.93;4.27;;;8.50;99.90;;;;;;466758;254;28399;-74
2022/12/25 05:15:59;;;;;;;7.20;4.90;;;8.50;99.90;;;;;;466699;254;28466;-74
2022/12/25 05:18:00;;;;;;;6.10;3.50;;;8.50;99.90;;;;;;466814;254;28051;-75
2022/12/25 05:20:01;;;;;;;3.53;3.23;;;8.50;99.90;;;;;;466793;254;27822;-76
2022/12/25 05:22:03;;;;;;;4.10;3.27;;;8.60;99.90;;;;;;466701;254;28058;-74
2022/12/25 05:24:04;;;;;;;4.47;3.30;;;8.60;99.90;;;;;;466826;254;27981;-75
2022/12/25 05:26:05;;;;;;;4.10;2.97;;;8.50;99.90;;;;;;466782;254;27883;-73
2022/12/25 05:28:06;;;;;;;8.57;3.80;;;8.50;99.90;;;;;;466701;254;27912;-74
2022/12/25 05:30:08;;;;;;;4.90;3.33;;;8.60;99.90;;;;;;466765;254;27617;-74
2022/12/25 05:32:09;;;;;;;4.20;3.00;;;8.50;99.90;;;;;;466683;254;28275;-74
2022/12/25 05:34:10;;;;;;;4.37;3.00;;;8.50;99.90;;;;;;466755;254;28017;-73
2022/12/25 05:36:11;;;;;;;3.20;2.80;;;8.50;99.90;;;;;;466719;254;27852;-74
2022/12/25 05:38:13;;;;;;;2.43;2.20;;;8.40;99.90;;;;;;466709;254;28234;-74
2022/12/25 05:40:14;;;;;;;2.90;2.57;;;8.50;99.90;;;;;;466727;254;28589;-74
2022/12/25 05:42:15;;;;;;;8.00;3.50;;;8.50;99.90;;;;;;466780;254;28647;-74
2022/12/25 05:44:16;;;;;;;2.57;2.37;;;8.50;99.90;;;;;;466810;252;28293;-74
2022/12/25 05:46:18;;;;;;;3.10;2.77;;;8.50;99.90;;;;;;466777;254;28518;-74
2022/12/25 05:48:19;;;;;;;2.70;2.50;;;8.50;99.90;;;;;;466679;255;28053;-76
2022/12/25 05:50:20;;;;;;;5.67;3.70;;;8.60;99.90;;;;;;466736;254;27940;-74
2022/12/25 05:52:21;;;;;;;8.37;3.90;;;8.60;99.90;;;;;;466749;254;28087;-74
2022/12/25 05:54:23;;;;;;;4.33;3.37;;;8.60;99.90;;;;;;466766;254;27768;-74
2022/12/25 05:56:24;;;;;;;10.23;4.80;;;8.60;99.90;;;;;;466767;254;27486;-74
2022/12/25 05:58:25;;;;;;;3.27;2.97;;;8.60;99.90;;;;;;466750;254;28050;-74
2022/12/25 06:00:26;;;;;;;3.80;3.30;;;8.70;99.90;;;;;;466744;254;28152;-74
2022/12/25 06:02:28;;;;;;;4.80;3.30;;;8.70;99.90;;;;;;466772;254;27995;-74
2022/12/25 06:04:29;;;;;;;5.70;3.37;;;8.70;99.90;;;;;;466743;254;27993;-74
2022/12/25 06:06:30;;;;;;;6.47;4.97;;;8.80;99.90;;;;;;466772;254;28087;-74
2022/12/25 06:08:33;;;;;;;3.83;3.07;;;8.70;99.90;;;;;;466730;254;28319;-73
2022/12/25 06:10:33;;;;;;;4.23;3.30;;;8.70;99.90;;;;;;466729;254;28047;-74
2022/12/25 06:12:34;;;;;;;3.23;2.93;;;8.70;99.90;;;;;;466813;254;27981;-74
2022/12/25 06:14:35;;;;;;;5.97;4.80;;;8.70;99.90;;;;;;466713;254;27938;-74
2022/12/25 06:16:36;;;;;;;12.47;4.43;;;8.70;99.90;;;;;;466743;255;28587;-74
2022/12/25 06:18:38;;;;;;;7.87;4.50;;;8.70;99.90;;;;;;466714;254;28500;-74
2022/12/25 06:20:39;;;;;;;6.17;3.97;;;8.70;99.90;;;;;;466742;254;28536;-74
2022/12/25 06:22:40;;;;;;;4.17;3.20;;;8.70;99.90;;;;;;466797;254;27965;-74
2022/12/25 06:24:41;;;;;;;9.00;4.33;;;8.70;99.90;;;;;;466708;254;27934;-74
2022/12/25 06:26:43;;;;;;;5.83;3.93;;;8.70;99.90;;;;;;466719;254;27985;-74
2022/12/25 06:28:44;;;;;;;3.63;2.90;;;8.60;99.90;;;;;;466748;254;27793;-74
2022/12/25 06:30:45;;;;;;;4.40;3.10;;;8.70;99.90;;;;;;466780;254;27786;-74
2022/12/25 06:32:46;;;;;;;4.03;3.37;;;8.70;99.90;;;;;;466779;252;27943;-74
2022/12/25 06:34:47;;;;;;;3.90;3.00;;;8.80;99.90;;;;;;466781;254;27689;-74
2022/12/25 06:36:49;;;;;;;3.23;2.40;;;8.70;99.90;;;;;;466806;254;27660;-74
2022/12/25 06:38:50;;;;;;;7.07;2.73;;;8.80;99.90;;;;;;466784;252;28182;-74
2022/12/25 06:40:51;;;;;;;2.70;2.40;;;8.80;99.90;;;;;;466777;254;27611;-72
2022/12/25 06:42:52;;;;;;;2.50;2.30;;;8.80;99.90;;;;;;466720;254;27852;-74
2022/12/25 06:44:54;;;;;;;7.30;2.90;;;8.80;99.90;;;;;;466693;255;27943;-73
2022/12/25 06:46:55;;;;;;;3.03;2.70;;;8.80;99.90;;;;;;466738;254;28058;-74
2022/12/25 06:48:56;;;;;;;3.33;2.40;;;8.90;99.90;;;;;;466743;254;28002;-74
2022/12/25 06:50:57;;;;;;;3.13;2.03;;;8.90;99.90;;;;;;466723;254;28500;-74
2022/12/25 06:52:59;;;;;;;3.60;2.47;;;8.90;99.90;;;;;;466713;255;28504;-74
2022/12/25 06:55:00;;;;;;;2.40;2.00;;;8.90;99.90;;;;;;466709;254;28569;-74
2022/12/25 06:57:01;;;;;;;2.60;1.80;;;8.90;99.90;;;;;;466725;254;27988;-74
2022/12/25 06:59:02;;;;;;;2.20;2.10;;;8.90;99.90;;;;;;466706;254;28226;-73
2022/12/25 07:01:04;;;;;;;3.00;1.93;;;8.90;99.90;;;;;;466587;254;28647;-73
2022/12/25 07:03:05;;;;;;;3.67;2.23;;;8.90;99.90;;;;;;466746;254;27910;-74
2022/12/25 07:05:06;;;;;;;3.73;2.10;;;8.90;99.90;;;;;;466664;254;28149;-74
2022/12/25 07:07:07;;;;;;;1.70;1.60;;;8.90;99.90;;;;;;466760;255;27979;-73
2022/12/25 07:09:09;;;;;;;2.30;2.10;;;8.80;99.90;;;;;;466722;254;27934;-75
2022/12/25 07:11:10;;;;;;;2.27;1.97;;;8.80;99.90;;;;;;466710;254;27968;-74
2022/12/25 07:13:11;;;;;;;2.33;1.90;;;8.80;99.90;;;;;;466732;254;28062;-74
2022/12/25 07:15:12;;;;;;;3.43;2.00;;;8.80;99.90;;;;;;466750;254;28017;-74
2022/12/25 07:17:14;;;;;;;5.07;2.67;;;8.80;99.90;;;;;;466773;254;27956;-74
2022/12/25 07:19:15;;;;;;;2.03;1.93;;;8.70;99.90;;;;;;466774;254;28018;-73
2022/12/25 07:21:16;;;;;;;2.17;2.00;;;8.80;99.90;;;;;;466761;254;27674;-75
2022/12/25 07:23:17;;;;;;;4.57;3.23;;;8.80;99.90;;;;;;466798;255;27929;-74
2022/12/25 07:25:19;;;;;;;4.03;2.80;;;8.80;99.90;;;;;;466786;254;27932;-74
2022/12/25 07:27:20;;;;;;;3.37;2.97;;;8.80;99.90;;;;;;466752;254;27735;-74
2022/12/25 07:29:21;;;;;;;4.73;3.63;;;8.80;99.90;;;;;;466780;254;27934;-74
2022/12/25 07:31:22;;;;;;;4.40;3.40;;;8.80;99.90;;;;;;466764;254;27966;-74
2022/12/25 07:33:24;;;;;;;4.03;3.60;;;8.90;99.90;;;;;;466740;254;28670;-74
2022/12/25 07:35:25;;;;;;;4.00;2.80;;;9.00;99.90;;;;;;466728;254;28120;-74
2022/12/25 07:37:26;;;;;;;5.70;3.37;;;9.00;99.90;;;;;;466693;254;28519;-74
2022/12/25 07:39:27;;;;;;;6.40;2.87;;;9.00;99.90;;;;;;466751;254;28495;-74
2022/12/25 07:41:29;;;;;;;3.70;2.93;;;9.00;99.90;;;;;;466747;254;28091;-74
2022/12/25 07:43:30;;;;;;;3.17;2.70;;;9.00;99.90;;;;;;466804;254;27572;-76
2022/12/25 07:45:31;;;;;;;3.40;3.10;;;8.90;99.90;;;;;;466743;255;27926;-74
2022/12/25 07:47:32;;;;;;;3.00;2.70;;;8.90;99.90;;;;;;466742;254;27682;-73
2022/12/25 07:49:34;;;;;;;3.30;3.00;;;8.90;99.90;;;;;;466719;254;27885;-74
2022/12/25 07:51:35;;;;;;;3.40;3.10;;;8.90;99.90;;;;;;466740;254;27989;-75
2022/12/25 07:53:36;;;;;;;3.10;2.80;;;8.90;99.90;;;;;;466751;254;28318;-79
2022/12/25 07:55:38;;;;;;;2.80;2.60;;;8.90;99.90;;;;;;480886;235;27878;-84
2022/12/25 07:57:39;;;;;;;3.23;2.97;;;9.00;99.90;;;;;;495216;236;27889;-83
2022/12/25 08:01:52;;;;;;;5.90;3.10;;;9.00;99.90;;;;;;463075;257;27975;-80
2022/12/25 08:03:54;;;;;;;3.20;2.90;;;9.00;99.90;;;;;;467038;255;27907;-81
2022/12/25 08:05:55;;;;;;;5.10;3.07;;;9.00;99.90;;;;;;462986;257;27968;-81
2022/12/25 08:07:56;;;;;;;3.63;3.03;;;9.00;99.90;;;;;;466749;253;28042;-81
2022/12/25 08:09:57;;;;;;;4.50;3.07;;;9.00;99.90;;;;;;462945;257;27930;-80
2022/12/25 08:11:59;;;;;;;3.50;3.20;;;9.00;99.90;;;;;;467016;254;28164;-81
2022/12/25 08:14:00;;;;;;;2.83;2.63;;;9.00;99.90;;;;;;462650;257;28086;-80
2022/12/25 08:16:01;;;;;;;4.20;3.50;;;9.00;99.90;;;;;;466997;254;28498;-80
2022/12/25 08:18:02;;;;;;;5.57;4.60;;;9.00;99.90;;;;;;462875;257;28429;-81
2022/12/25 08:20:04;;;;;;;5.43;4.10;;;9.10;99.90;;;;;;466550;253;28256;-79
2022/12/25 08:22:05;;;;;;;7.20;3.87;;;9.00;99.90;;;;;;462985;257;28257;-80
2022/12/25 08:24:06;;;;;;;4.80;3.40;;;9.10;99.90;;;;;;466164;255;28456;-81
2022/12/25 08:26:07;;;;;;;4.10;3.70;;;9.20;99.90;;;;;;462934;257;27695;-80
2022/12/25 08:28:09;;;;;;;8.90;6.00;;;9.30;99.90;;;;;;466224;255;27996;-82
2022/12/25 08:30:10;;;;;;;4.93;4.43;;;9.30;99.90;;;;;;463121;257;28054;-81
2022/12/25 08:32:11;;;;;;;3.80;3.50;;;9.40;99.90;;;;;;466972;255;28105;-80
2022/12/25 08:34:12;;;;;;;9.07;4.27;;;9.50;99.90;;;;;;457737;256;27708;-79
2022/12/25 08:36:14;;;;;;;3.87;3.27;;;9.60;99.90;;;;;;453861;261;27700;-79
2022/12/25 08:38:15;;;;;;;3.17;2.60;;;9.70;99.90;;;;;;461405;256;27737;-82
2022/12/25 08:40:16;;;;;;;3.80;2.23;;;9.80;99.90;;;;;;456033;259;27618;-81
2022/12/25 08:42:17;;;;;;;3.13;2.40;;;9.90;99.90;;;;;;471801;251;28282;-80
2022/12/25 08:44:19;;;;;;;4.20;2.37;;;10.00;99.90;;;;;;454093;261;28426;-81
2022/12/25 08:46:20;;;;;;;4.13;2.40;;;10.00;99.90;;;;;;471965;251;28441;-80
2022/12/25 08:48:21;;;;;;;2.73;2.03;;;10.10;99.90;;;;;;454411;261;27969;-81
2022/12/25 08:50:22;;;;;;;3.63;2.47;;;10.10;99.90;;;;;;454190;261;28144;-81
2022/12/25 08:52:24;;;;;;;3.57;3.00;;;10.10;99.90;;;;;;456490;259;28027;-81
2022/12/25 08:54:25;;;;;;;3.83;2.90;;;10.20;99.90;;;;;;472496;251;28377;-80
2022/12/25 08:56:26;;;;;;;2.93;2.43;;;10.20;99.90;;;;;;453838;261;28051;-81
2022/12/25 08:58:28;;;;;;;3.27;2.40;;;10.20;99.90;;;;;;472407;251;28485;-80
2022/12/25 09:00:29;;;;;;;2.67;2.10;;;10.20;99.90;;;;;;454428;261;28522;-81
2022/12/25 09:02:30;;;;;;;2.60;2.10;;;10.20;99.90;;;;;;471875;252;27989;-82
2022/12/25 09:04:31;;;;;;;3.30;2.00;;;10.20;99.90;;;;;;454602;261;27943;-81
2022/12/25 09:06:33;;;;;;;2.00;1.80;;;10.20;99.90;;;;;;454464;260;27611;-81
2022/12/25 09:08:34;;;;;;;3.53;2.07;;;10.30;99.90;;;;;;455037;261;27996;-83
2022/12/25 09:10:36;;;;;;;2.00;1.80;;;10.30;99.90;;;;;;472806;252;27923;-83
2022/12/25 09:12:36;;;;;;;2.40;1.90;;;10.40;99.90;;;;;;453718;262;27912;-81
2022/12/25 09:14:38;;;;;;;2.37;1.90;;;10.40;99.90;;;;;;471274;252;28495;-81
2022/12/25 09:16:39;;;;;;;1.90;1.80;;;10.60;99.90;;;;;;454860;258;28379;-83
2022/12/25 09:18:40;;;;;;;2.03;1.73;;;10.60;99.90;;;;;;472710;251;28436;-83
2022/12/25 09:20:41;;;;;;;3.00;1.77;;;10.70;99.90;;;;;;454862;261;27954;-81
2022/12/25 09:22:43;;;;;;;2.60;1.90;;;10.70;99.90;;;;;;471273;252;27962;-82
2022/12/25 09:24:44;;;;;;;1.80;1.70;;;10.70;99.90;;;;;;454409;261;28180;-80
2022/12/25 09:26:45;;;;;;;2.10;1.90;;;10.70;99.90;;;;;;454560;260;28001;-80
2022/12/25 09:28:46;;;;;;;3.20;1.90;;;10.70;99.90;;;;;;453441;260;36214;-82
2022/12/25 09:30:48;;;;;;;2.57;1.60;;;10.70;99.90;;;;;;471694;252;27517;-81
2022/12/25 09:32:49;;;;;;;1.90;1.80;;;10.80;99.90;;;;;;454885;261;28060;-82
2022/12/25 09:34:50;;;;;;;3.10;1.90;;;10.80;99.90;;;;;;471232;252;27992;-81
2022/12/25 09:36:51;;;;;;;4.40;2.50;;;10.90;99.90;;;;;;458179;256;28062;-82
2022/12/25 09:38:53;;;;;;;2.93;2.50;;;10.90;99.90;;;;;;457794;260;28904;-82
2022/12/25 09:40:54;;;;;;;3.07;2.20;;;10.80;99.90;;;;;;459465;258;28492;-81
2022/12/25 09:42:55;;;;;;;1.90;1.80;;;10.80;99.90;;;;;;455399;261;28502;-83
2022/12/25 09:44:56;;;;;;;2.00;1.90;;;10.80;99.90;;;;;;466582;255;28762;-83
2022/12/25 09:46:58;;;;;;;3.77;1.80;;;10.90;99.90;;;;;;461914;257;28125;-83
2022/12/25 09:48:59;;;;;;;5.20;2.00;;;10.90;99.90;;;;;;461518;258;28237;-84
2022/12/25 09:51:00;;;;;;;2.70;1.87;;;10.90;99.90;;;;;;459762;258;28547;-83
2022/12/25 09:53:01;;;;;;;3.70;1.80;;;11.00;99.90;;;;;;455477;261;28605;-82
2022/12/25 09:55:03;;;;;;;4.80;1.90;;;11.00;99.90;;;;;;466449;255;28851;-82
2022/12/25 09:57:04;;;;;;;2.20;2.00;;;11.10;99.90;;;;;;461680;257;28295;-84
2022/12/25 09:59:05;;;;;;;3.50;2.17;;;11.10;99.90;;;;;;460639;258;28264;-83
2022/12/25 10:01:06;;;;;;;2.20;2.00;;;11.20;99.90;;;;;;460638;258;28167;-84
2022/12/25 10:03:08;;;;;;;3.27;2.97;;;11.30;99.90;;;;;;461911;257;28232;-85
2022/12/25 10:05:09;;;;;;;2.03;1.93;;;11.30;99.90;;;;;;460292;258;28277;-82
2022/12/25 10:07:10;;;;;;;3.13;2.60;;;11.40;99.90;;;;;;459322;258;28182;-81
2022/12/25 10:09:12;;;;;;;2.67;2.47;;;11.40;99.90;;;;;;455094;261;28125;-84
2022/12/25 10:11:13;;;;;;;3.50;2.60;;;11.40;99.90;;;;;;459835;258;28176;-81
2022/12/25 10:13:14;;;;;;;3.73;2.40;;;11.40;99.90;;;;;;456427;259;28203;-81
2022/12/25 10:15:15;;;;;;;2.27;2.07;;;11.30;99.90;;;;;;466197;255;28835;-82
2022/12/25 10:17:16;;;;;;;2.73;2.53;;;11.30;99.90;;;;;;461153;257;28779;-83
2022/12/25 10:19:18;;;;;;;2.40;2.20;;;11.20;99.90;;;;;;459567;258;29446;-81
2022/12/25 10:21:19;;;;;;;2.60;2.37;;;11.10;99.90;;;;;;455853;260;28642;-81
2022/12/25 10:23:20;;;;;;;3.40;2.60;;;11.00;99.90;;;;;;461045;253;28454;-81
2022/12/25 10:25:21;;;;;;;2.90;2.37;;;10.90;99.90;;;;;;461430;257;28036;-82
2022/12/25 10:27:23;;;;;;;2.50;2.30;;;10.90;99.90;;;;;;460288;258;28152;-82
2022/12/25 10:29:24;;;;;;;2.03;1.93;;;10.90;99.90;;;;;;459270;259;28196;-83
2022/12/25 10:31:25;;;;;;;13.23;2.83;;;10.80;99.90;;;;;;456075;259;28063;-82
2022/12/25 10:33:26;;;;;;;3.60;2.17;;;10.90;99.90;;;;;;461166;254;28551;-82
2022/12/25 10:35:28;;;;;;;4.03;2.60;;;10.90;99.90;;;;;;459812;258;28596;-81
2022/12/25 10:37:29;;;;;;;2.70;2.50;;;10.90;99.90;;;;;;460290;258;28020;-83
2022/12/25 10:39:30;;;;;;;3.43;2.50;;;11.00;99.90;;;;;;461538;257;28149;-82
2022/12/25 10:41:33;;;;;;;2.30;1.90;;;11.10;99.90;;;;;;459836;254;27944;-80
2022/12/25 10:43:33;;;;;;;2.43;2.03;;;11.20;99.90;;;;;;460254;258;28481;-82
2022/12/25 10:45:34;;;;;;;3.03;2.53;;;11.30;99.90;;;;;;461451;258;28628;-82
2022/12/25 10:47:41;;;;;;;3.40;2.67;;;11.30;99.90;;;;;;461433;257;28612;-82
2022/12/25 10:49:37;;;;;;;2.33;2.13;;;11.40;99.90;;;;;;461668;257;28214;-83
2022/12/25 10:51:41;;;;;;;2.77;2.30;;;11.40;99.90;;;;;;461685;257;28271;-82
2022/12/25 10:53:42;;;;;;;5.33;2.60;;;11.40;99.90;;;;;;461335;254;28280;-80
2022/12/25 10:55:44;;;;;;;3.07;2.40;;;11.40;99.90;;;;;;467160;254;28807;-82
2022/12/25 10:57:45;;;;;;;3.50;2.20;;;11.40;99.90;;;;;;463589;235;29140;-81
2022/12/25 10:59:46;;;;;;;2.73;2.03;;;11.40;99.90;;;;;;485535;245;28763;-81
2022/12/25 11:01:47;;;;;;;12.67;2.53;;;11.50;99.90;;;;;;485110;245;28301;-80
2022/12/25 11:03:49;;;;;;;2.63;2.00;;;11.50;99.90;;;;;;483488;246;28223;-80
2022/12/25 11:05:53;;;;;;;3.43;2.20;;;11.50;99.90;;;;;;483485;246;28441;-82
2022/12/25 11:07:54;;;;;;;3.27;2.77;;;11.60;99.90;;;;;;484303;246;28952;-81
2022/12/25 11:09:55;;;;;;;2.53;2.33;;;11.50;99.90;;;;;;483095;246;28769;-84
2022/12/25 11:11:57;;;;;;;2.70;2.00;;;11.50;99.90;;;;;;484384;246;28651;-84
2022/12/25 11:13:58;;;;;;;3.20;2.40;;;11.60;99.90;;;;;;483563;246;28261;-82
2022/12/25 11:16:00;;;;;;;5.10;2.33;;;11.70;99.90;;;;;;484947;246;28245;-84
2022/12/25 11:18:00;;;;;;;7.03;3.27;;;11.70;99.90;;;;;;484761;246;28349;-81
2022/12/25 11:20:02;;;;;;;2.57;2.37;;;11.80;99.90;;;;;;483357;246;28246;-82
2022/12/25 11:22:04;;;;;;;3.80;3.10;;;11.70;99.90;;;;;;484957;242;28210;-80
2022/12/25 11:24:04;;;;;;;2.47;2.27;;;11.70;99.90;;;;;;483155;246;28162;-81
2022/12/25 11:26:05;;;;;;;2.87;2.57;;;11.60;99.90;;;;;;483544;246;28133;-82
2022/12/25 11:28:08;;;;;;;3.85;2.40;;;;;;;;;;483398;246;25158;-83
2022/12/25 11:30:09;;;;;;;2.67;2.47;;;11.70;99.90;;;;;;484844;246;26685;-83
2022/12/25 11:32:11;;;;;;;5.83;2.40;;;11.80;99.90;;;;;;483418;246;28228;-82
2022/12/25 11:34:12;;;;;;;2.73;2.53;;;11.80;99.90;;;;;;485258;245;28380;-86
2022/12/25 11:36:16;;;;;;;4.43;3.10;;;11.90;99.90;;;;;;483627;246;28304;-87
2022/12/25 11:38:17;;;;;;;6.83;4.13;;;12.00;99.90;;;;;;485291;242;28417;-84
2022/12/25 11:40:18;;;;;;;5.27;3.03;;;12.00;99.90;;;;;;483490;246;28538;-87
2022/12/25 11:42:20;;;;;;;4.10;3.27;;;12.10;99.90;;;;;;483762;246;28531;-87
2022/12/25 11:44:21;;;;;;;3.80;2.67;;;12.20;99.90;;;;;;483508;246;30534;-84
2022/12/25 11:46:28;;;;;;;3.00;2.60;;;12.20;99.90;;;;;;485090;245;28560;-82
2022/12/25 11:48:31;;;;;;;3.43;2.77;;;;;;;;;;484655;246;28369;-84
2022/12/25 11:50:32;;;;;;;2.30;2.13;;;12.10;99.80;;;;;;485038;245;26908;-82
2022/12/25 11:52:39;;;;;;;4.17;2.57;;;12.30;99.50;;;;;;485123;245;28075;-83
2022/12/25 11:54:40;;;;;;;3.17;2.60;;;12.30;99.30;;;;;;484907;245;28817;-82
2022/12/25 11:56:41;;;;;;;2.77;2.23;;;12.40;98.70;;;;;;483300;246;28640;-82
2022/12/25 11:58:43;;;;;;;2.87;2.57;;;12.40;98.60;;;;;;484707;245;28217;-81
2022/12/25 12:00:44;;;;;;;3.03;2.43;;;12.30;98.80;;;;;;484539;246;29482;-82
2022/12/25 12:02:45;;;;;;;2.20;2.03;;;12.30;99.10;;;;;;482945;246;29130;-83
2022/12/25 12:04:46;;;;;;;2.63;2.27;;;12.30;98.90;;;;;;484346;246;28817;-82
2022/12/25 12:06:48;;;;;;;3.90;2.50;;;12.30;99.10;;;;;;484409;246;28138;-80
2022/12/25 12:08:49;;;;;;;2.80;2.27;;;12.30;98.90;;;;;;483249;246;28061;-81
2022/12/25 12:10:50;;;;;;;4.03;2.70;;;12.30;98.30;;;;;;483181;246;28186;-81
2022/12/25 12:12:51;;;;;;;2.50;2.30;;;12.30;98.70;;;;;;484610;246;28587;-82
2022/12/25 12:14:54;;;;;;;3.63;2.67;;;;;;;;;;483032;246;28201;-83